Time;durP1;ratioP1;P1;durP2;ratioP2;P2;SDS_P1;SDS_P2;PMS_P1;PMS_P2;Temp;Humidity;BMP_temperature;BMP_pressure;BME280_temperature;BME280_humidity;BME280_pressure;Samples;Min_cycle;Max_cycle;Signal;HPM_P1;HPM_P2
2023/10/22 00:00:00;;;;;;;1.90;1.53;;;;;10.30;94986.00;;;;5062008;28;20717;-63
2023/10/22 00:02:27;;;;;;;0.80;0.80;;;;;10.40;94994.00;;;;5061056;28;20219;-62
2023/10/22 00:04:55;;;;;;;0.60;0.60;;;;;10.40;94992.00;;;;5061552;28;20188;-62
2023/10/22 00:07:22;;;;;;;1.00;1.00;;;;;10.40;94990.00;;;;5042777;28;20199;-63
2023/10/22 00:09:50;;;;;;;1.07;1.03;;;;;10.30;94999.00;;;;5063684;28;20203;-64
2023/10/22 00:12:17;;;;;;;0.67;0.67;;;;;10.20;94999.00;;;;5063098;28;20216;-63
2023/10/22 00:14:44;;;;;;;0.83;0.83;;;;;10.10;95009.00;;;;5062772;28;20188;-62
2023/10/22 00:17:14;;;;;;;0.80;0.80;;;;;10.00;95014.00;;;;5062294;28;20623;-67
2023/10/22 00:19:41;;;;;;;0.60;0.60;;;;;9.90;95013.00;;;;5062551;28;20204;-64
2023/10/22 00:22:08;;;;;;;1.40;1.30;;;;;10.00;95018.00;;;;5062365;28;20220;-63
2023/10/22 00:24:36;;;;;;;1.00;1.00;;;;;10.00;95020.00;;;;5063108;28;20647;-63
2023/10/22 00:27:03;;;;;;;1.63;1.37;;;;;10.00;95018.00;;;;5062912;28;20215;-63
2023/10/22 00:29:31;;;;;;;0.93;0.93;;;;;9.90;95017.00;;;;5044843;28;20196;-62
2023/10/22 00:31:58;;;;;;;0.83;0.83;;;;;9.90;95021.00;;;;5062018;28;20212;-63
2023/10/22 00:34:27;;;;;;;0.73;0.73;;;;;9.90;95022.00;;;;5062758;28;20200;-62
2023/10/22 00:36:54;;;;;;;0.70;0.70;;;;;9.80;95031.00;;;;5062582;28;20717;-63
2023/10/22 00:39:22;;;;;;;0.90;0.90;;;;;9.80;95038.00;;;;5062407;28;20218;-63
2023/10/22 00:41:49;;;;;;;0.70;0.70;;;;;9.70;95045.00;;;;5063044;28;20266;-62
2023/10/22 00:44:17;;;;;;;0.97;0.97;;;;;9.70;95043.00;;;;5044317;28;20626;-63
2023/10/22 00:46:45;;;;;;;0.67;0.67;;;;;9.70;95049.00;;;;5062404;28;20195;-63
2023/10/22 00:49:14;;;;;;;1.07;1.07;;;;;9.70;95057.00;;;;5062594;28;20200;-63
2023/10/22 00:51:44;;;;;;;1.40;1.37;;;;;9.70;95054.00;;;;5062500;28;20286;-69
2023/10/22 00:54:14;;;;;;;0.93;0.93;;;;;9.70;95053.00;;;;5061446;28;20189;-63
2023/10/22 00:56:42;;;;;;;0.80;0.80;;;;;9.80;95054.00;;;;5061882;28;20262;-63
2023/10/22 00:59:11;;;;;;;0.70;0.70;;;;;9.70;95057.00;;;;5061338;28;20294;-63
2023/10/22 01:01:39;;;;;;;0.97;0.97;;;;;9.70;95056.00;;;;5061336;28;20223;-63
2023/10/22 01:04:06;;;;;;;0.87;0.87;;;;;9.70;95055.00;;;;5061987;28;20192;-63
2023/10/22 01:06:34;;;;;;;1.20;1.10;;;;;9.60;95059.00;;;;5062152;28;20199;-63
2023/10/22 01:09:04;;;;;;;7.30;2.03;;;;;9.60;95056.00;;;;5061487;28;20283;-63
2023/10/22 01:11:31;;;;;;;1.73;1.63;;;;;9.60;95055.00;;;;5061568;28;20212;-63
2023/10/22 01:13:58;;;;;;;1.23;1.10;;;;;9.50;95055.00;;;;5058885;28;20226;-63
2023/10/22 01:16:26;;;;;;;0.90;0.90;;;;;9.50;95059.00;;;;5060515;28;20203;-63
2023/10/22 01:18:54;;;;;;;0.70;0.70;;;;;9.60;95055.00;;;;5061324;28;20548;-63
2023/10/22 01:21:24;;;;;;;0.70;0.70;;;;;9.40;95060.00;;;;5060942;28;20208;-63
2023/10/22 01:23:53;;;;;;;0.93;0.93;;;;;9.30;95035.00;;;;5043973;28;20196;-62
2023/10/22 01:26:20;;;;;;;1.30;1.20;;;;;9.10;95069.00;;;;5061055;28;20192;-63
2023/10/22 01:28:47;;;;;;;0.93;0.93;;;;;9.00;95065.00;;;;5060900;28;20196;-63
2023/10/22 01:31:16;;;;;;;0.70;0.70;;;;;8.90;95061.00;;;;5043495;28;20251;-62
2023/10/22 01:33:44;;;;;;;0.60;0.60;;;;;8.90;95058.00;;;;5061078;28;20674;-62
2023/10/22 01:36:11;;;;;;;0.70;0.70;;;;;8.80;95046.00;;;;5060917;28;20253;-62
2023/10/22 01:38:38;;;;;;;0.87;0.87;;;;;8.80;95049.00;;;;5043608;28;20215;-63
2023/10/22 01:41:08;;;;;;;0.60;0.60;;;;;8.90;95054.00;;;;5061254;28;20184;-62
2023/10/22 01:43:36;;;;;;;1.10;1.10;;;;;8.90;95057.00;;;;5027126;28;20203;-63
2023/10/22 01:46:03;;;;;;;0.60;0.60;;;;;8.80;95061.00;;;;5061255;28;20187;-62
2023/10/22 01:48:30;;;;;;;1.07;1.07;;;;;8.70;95053.00;;;;5061296;28;20193;-62
2023/10/22 01:50:58;;;;;;;0.70;0.70;;;;;8.70;95052.00;;;;5042932;28;20196;-63
2023/10/22 01:53:25;;;;;;;0.70;0.70;;;;;8.70;95053.00;;;;5060554;28;20198;-63
2023/10/22 01:55:53;;;;;;;1.00;1.00;;;;;8.70;95056.00;;;;5060728;28;20199;-63
2023/10/22 01:58:20;;;;;;;0.77;0.77;;;;;8.80;95067.00;;;;5060672;28;20216;-63
2023/10/22 02:00:48;;;;;;;0.90;0.90;;;;;8.80;95059.00;;;;5060449;28;20200;-63
2023/10/22 02:03:16;;;;;;;1.17;1.17;;;;;8.60;95057.00;;;;5060784;28;20239;-63
2023/10/22 02:05:43;;;;;;;0.60;0.60;;;;;8.70;95058.00;;;;5060688;28;20204;-63
2023/10/22 02:08:11;;;;;;;1.13;1.13;;;;;8.60;95066.00;;;;5060501;28;20609;-63
2023/10/22 02:10:38;;;;;;;0.87;0.87;;;;;8.60;95068.00;;;;5060098;28;20274;-64
2023/10/22 02:13:05;;;;;;;2.93;1.57;;;;;8.60;95069.00;;;;5060552;28;20219;-63
2023/10/22 02:15:34;;;;;;;0.87;0.87;;;;;8.60;95078.00;;;;5060504;28;20192;-63
2023/10/22 02:18:02;;;;;;;1.03;1.03;;;;;8.60;95068.00;;;;5060189;28;20223;-63
2023/10/22 02:20:29;;;;;;;0.70;0.70;;;;;8.80;95082.00;;;;5042844;28;20200;-63
2023/10/22 02:22:59;;;;;;;0.90;0.90;;;;;8.70;95082.00;;;;5060405;28;20226;-63
2023/10/22 02:25:26;;;;;;;0.73;0.73;;;;;8.70;95084.00;;;;5059936;28;20195;-63
2023/10/22 02:27:54;;;;;;;0.90;0.90;;;;;8.50;95083.00;;;;5060129;28;20184;-63
2023/10/22 02:30:21;;;;;;;1.00;1.00;;;;;8.50;95084.00;;;;5059990;28;20199;-63
2023/10/22 02:32:50;;;;;;;1.47;1.37;;;;;8.50;95084.00;;;;5059937;28;20349;-63
2023/10/22 02:35:17;;;;;;;1.03;0.87;;;;;8.50;95088.00;;;;5059790;28;20268;-62
2023/10/22 02:37:47;;;;;;;0.90;0.90;;;;;8.50;95089.00;;;;5059518;28;20216;-62
2023/10/22 02:40:14;;;;;;;0.60;0.60;;;;;8.60;95084.00;;;;5060717;28;20195;-63
2023/10/22 02:42:42;;;;;;;0.90;0.90;;;;;8.60;95082.00;;;;5059347;28;20215;-63
2023/10/22 02:45:10;;;;;;;0.80;0.80;;;;;8.70;95084.00;;;;5059083;28;20192;-63
2023/10/22 02:47:37;;;;;;;0.70;0.70;;;;;8.70;95086.00;;;;5059886;28;20199;-63
2023/10/22 02:50:08;;;;;;;0.90;0.90;;;;;8.70;95088.00;;;;5058475;28;20192;-63
2023/10/22 02:52:35;;;;;;;1.27;1.10;;;;;8.70;95094.00;;;;5058858;28;20222;-63
2023/10/22 02:55:03;;;;;;;1.07;1.07;;;;;8.60;95096.00;;;;5058477;28;20200;-63
2023/10/22 02:57:30;;;;;;;0.70;0.70;;;;;8.50;95102.00;;;;5057858;28;20219;-63
2023/10/22 02:59:58;;;;;;;2.27;1.53;;;;;8.50;95104.00;;;;5057479;28;20257;-63
2023/10/22 03:02:25;;;;;;;1.50;1.40;;;;;8.50;95111.00;;;;5055900;28;20717;-63
2023/10/22 03:04:53;;;;;;;0.90;0.83;;;;;8.50;95109.00;;;;5058358;28;20191;-63
2023/10/22 03:07:23;;;;;;;1.23;1.13;;;;;8.50;95112.00;;;;5060586;28;20194;-63
2023/10/22 03:09:50;;;;;;;0.70;0.70;;;;;8.50;95112.00;;;;5059167;28;20664;-63
2023/10/22 03:12:17;;;;;;;0.60;0.60;;;;;8.50;95124.00;;;;5059523;28;20216;-62
2023/10/22 03:14:45;;;;;;;0.60;0.60;;;;;8.50;95125.00;;;;5059794;28;20192;-63
2023/10/22 03:17:12;;;;;;;0.60;0.60;;;;;8.60;95131.00;;;;5059865;28;20250;-63
2023/10/22 03:19:39;;;;;;;0.50;0.50;;;;;8.60;95135.00;;;;5060067;28;20195;-63
2023/10/22 03:22:07;;;;;;;0.70;0.70;;;;;8.60;95137.00;;;;5059375;28;20738;-63
2023/10/22 03:24:36;;;;;;;0.60;0.60;;;;;8.60;95141.00;;;;5058566;28;20255;-63
2023/10/22 03:27:04;;;;;;;0.60;0.60;;;;;8.50;95134.00;;;;5059362;28;20195;-63
2023/10/22 03:29:31;;;;;;;0.80;0.80;;;;;8.50;95139.00;;;;5059048;28;20234;-63
2023/10/22 03:31:58;;;;;;;0.60;0.60;;;;;8.60;95144.00;;;;5059133;28;20729;-63
2023/10/22 03:34:26;;;;;;;1.03;0.93;;;;;8.60;95158.00;;;;5058937;28;20192;-63
2023/10/22 03:36:53;;;;;;;0.70;0.70;;;;;8.60;95149.00;;;;5058758;28;20208;-63
2023/10/22 03:39:21;;;;;;;1.03;1.03;;;;;8.50;95147.00;;;;5059656;28;20214;-63
2023/10/22 03:41:51;;;;;;;0.60;0.60;;;;;8.40;95146.00;;;;5058830;28;20243;-63
2023/10/22 03:44:18;;;;;;;0.80;0.80;;;;;8.30;95153.00;;;;5059432;28;20196;-62
2023/10/22 03:46:46;;;;;;;0.50;0.50;;;;;8.20;95157.00;;;;5057032;28;20216;-62
2023/10/22 03:49:13;;;;;;;0.60;0.60;;;;;8.20;95163.00;;;;5055815;28;20616;-63
2023/10/22 03:51:44;;;;;;;0.60;0.60;;;;;8.30;95166.00;;;;5056604;28;20687;-62
2023/10/22 03:54:11;;;;;;;0.70;0.70;;;;;8.20;95164.00;;;;5056960;28;20533;-62
2023/10/22 03:56:39;;;;;;;0.90;0.90;;;;;8.20;95165.00;;;;5056420;28;20675;-61
2023/10/22 03:59:08;;;;;;;0.60;0.60;;;;;8.20;95164.00;;;;5039015;28;20216;-62
2023/10/22 04:01:35;;;;;;;0.63;0.63;;;;;8.30;95159.00;;;;5058310;28;20215;-62
2023/10/22 04:04:03;;;;;;;0.70;0.70;;;;;8.20;95158.00;;;;5058559;28;20196;-62
2023/10/22 04:06:31;;;;;;;0.87;0.70;;;;;8.20;95165.00;;;;5059621;28;20647;-62
2023/10/22 04:08:58;;;;;;;0.60;0.60;;;;;8.20;95175.00;;;;5041063;28;20196;-62
2023/10/22 04:11:25;;;;;;;7.63;0.90;;;;;8.10;95173.00;;;;5058505;28;20212;-62
2023/10/22 04:13:53;;;;;;;0.70;0.70;;;;;8.10;95177.00;;;;5040912;28;20200;-62
2023/10/22 04:16:21;;;;;;;0.70;0.70;;;;;8.10;95173.00;;;;5058792;28;20196;-62
2023/10/22 04:18:49;;;;;;;0.80;0.80;;;;;8.30;95176.00;;;;5058812;28;20216;-63
2023/10/22 04:21:17;;;;;;;0.87;0.87;;;;;8.30;95167.00;;;;5058604;28;20219;-63
2023/10/22 04:23:44;;;;;;;0.60;0.60;;;;;8.40;95174.00;;;;5058554;28;20184;-63
2023/10/22 04:26:15;;;;;;;0.60;0.60;;;;;8.60;95172.00;;;;5059128;28;20207;-63
2023/10/22 04:28:43;;;;;;;0.60;0.60;;;;;8.70;95167.00;;;;5040751;28;20203;-63
2023/10/22 04:31:11;;;;;;;2.33;1.33;;;;;8.60;95172.00;;;;5058197;28;20277;-63
2023/10/22 04:33:39;;;;;;;0.70;0.70;;;;;8.50;95177.00;;;;5058482;28;20204;-63
2023/10/22 04:36:15;;;;;;;0.50;0.50;;;;;8.30;95180.00;;;;5061990;28;20228;-63
2023/10/22 04:38:43;;;;;;;0.60;0.60;;;;;8.30;95180.00;;;;5044095;28;20204;-63
2023/10/22 04:41:11;;;;;;;0.60;0.60;;;;;8.20;95183.00;;;;5062235;28;20223;-63
2023/10/22 04:43:39;;;;;;;0.70;0.70;;;;;8.20;95186.00;;;;5061771;28;20279;-63
2023/10/22 04:46:06;;;;;;;0.60;0.60;;;;;8.20;95197.00;;;;5061931;28;20199;-63
2023/10/22 04:48:34;;;;;;;0.70;0.70;;;;;8.10;95193.00;;;;5062152;28;20199;-63
2023/10/22 04:51:07;;;;;;;0.70;0.70;;;;;8.00;95189.00;;;;5062243;28;20219;-63
2023/10/22 04:53:35;;;;;;;0.63;0.63;;;;;7.90;95187.00;;;;5061846;28;20188;-63
2023/10/22 04:56:03;;;;;;;0.77;0.77;;;;;7.90;95196.00;;;;5044129;28;20206;-63
2023/10/22 04:58:32;;;;;;;0.60;0.60;;;;;7.80;95196.00;;;;5043875;28;20222;-63
2023/10/22 05:01:00;;;;;;;0.60;0.60;;;8.90;74.50;7.80;95195.00;;;;5061343;28;20226;-63
2023/10/22 05:03:27;;;;;;;0.80;0.80;;;8.70;75.10;7.90;95206.00;;;;5061448;28;20188;-63
2023/10/22 05:05:54;;;;;;;0.60;0.60;;;8.70;75.10;7.80;95204.00;;;;5060458;28;20203;-63
2023/10/22 05:08:24;;;;;;;0.60;0.60;;;8.70;74.70;7.90;95166.00;;;;5043111;28;20203;-63
2023/10/22 05:10:51;;;;;;;0.77;0.77;;;8.60;75.10;7.80;95207.00;;;;5061014;28;20192;-63
2023/10/22 05:13:18;;;;;;;0.60;0.60;;;8.60;74.80;7.70;95208.00;;;;5062257;28;20196;-63
2023/10/22 05:15:54;;;;;;;0.80;0.80;;;8.60;75.20;7.70;95195.00;;;;5061670;28;20195;-62
2023/10/22 05:18:21;;;;;;;0.70;0.70;;;8.60;75.00;7.80;95213.00;;;;5061173;28;20204;-63
2023/10/22 05:20:48;;;;;;;0.77;0.77;;;8.60;75.00;7.80;95217.00;;;;5060525;28;20192;-63
2023/10/22 05:23:15;;;;;;;0.90;0.90;;;8.60;74.80;7.80;95221.00;;;;5061391;28;20687;-63
2023/10/22 05:25:44;;;;;;;1.03;0.93;;;8.60;74.50;7.80;95216.00;;;;5061248;28;20248;-63
2023/10/22 05:28:11;;;;;;;0.70;0.70;;;8.60;73.80;7.70;95215.00;;;;5060872;28;20207;-63
2023/10/22 05:30:38;;;;;;;0.80;0.80;;;;;7.60;95215.00;;;;5060731;28;20195;-63
2023/10/22 05:33:05;;;;;;;0.80;0.80;;;;;7.50;95215.00;;;;5060869;28;20215;-63
2023/10/22 05:35:36;;;;;;;0.87;0.87;;;8.30;75.90;7.50;95217.00;;;;5059972;28;20638;-63
2023/10/22 05:38:03;;;;;;;1.20;1.10;;;8.30;76.70;7.50;95217.00;;;;5060964;28;20222;-63
2023/10/22 05:40:36;;;;;;;0.80;0.80;;;8.40;76.80;7.70;95228.00;;;;5060374;28;20653;-63
2023/10/22 05:43:05;;;;;;;0.80;0.80;;;8.40;77.20;7.70;95230.00;;;;5042580;28;20212;-63
2023/10/22 05:45:32;;;;;;;0.90;0.90;;;8.50;76.50;7.70;95239.00;;;;5058305;28;20192;-63
2023/10/22 05:47:59;;;;;;;0.60;0.60;;;8.50;76.20;7.70;95236.00;;;;5059132;28;20193;-63
2023/10/22 05:50:27;;;;;;;0.57;0.57;;;8.50;75.80;7.70;95239.00;;;;5058940;28;20211;-63
2023/10/22 05:52:54;;;;;;;0.80;0.80;;;8.60;75.80;7.80;95241.00;;;;5058849;28;20216;-63
2023/10/22 05:55:21;;;;;;;0.70;0.70;;;8.60;75.50;7.80;95247.00;;;;5056570;28;20218;-63
2023/10/22 05:57:48;;;;;;;0.70;0.70;;;8.60;74.90;7.80;95253.00;;;;5056556;28;20196;-63
2023/10/22 06:00:17;;;;;;;1.33;0.80;;;8.60;74.70;7.80;95254.00;;;;5057027;28;20192;-63
2023/10/22 06:02:44;;;;;;;0.57;0.57;;;8.60;74.60;7.90;95254.00;;;;5059095;28;20216;-63
2023/10/22 06:05:12;;;;;;;0.57;0.57;;;8.60;74.40;7.70;95255.00;;;;5058121;28;20510;-63
2023/10/22 06:07:39;;;;;;;0.80;0.80;;;8.70;74.00;7.70;95259.00;;;;5057067;28;20191;-63
2023/10/22 06:10:10;;;;;;;0.77;0.77;;;8.50;74.80;7.70;95261.00;;;;5057554;28;20200;-63
2023/10/22 06:12:37;;;;;;;0.63;0.63;;;8.60;74.90;7.80;95268.00;;;;5058560;28;20220;-63
2023/10/22 06:15:05;;;;;;;0.73;0.73;;;8.60;75.30;7.70;95264.00;;;;5059256;28;20192;-63
2023/10/22 06:17:33;;;;;;;0.50;0.50;;;8.60;74.80;7.80;95272.00;;;;5060241;28;20188;-63
2023/10/22 06:20:00;;;;;;;0.97;0.97;;;8.60;75.00;7.80;95275.00;;;;5059244;28;20212;-63
2023/10/22 06:22:27;;;;;;;0.60;0.60;;;8.70;74.90;7.80;95278.00;;;;5059652;28;20208;-63
2023/10/22 06:24:54;;;;;;;0.80;0.80;;;8.60;74.40;7.90;95285.00;;;;5060541;28;20274;-63
2023/10/22 06:27:21;;;;;;;0.63;0.63;;;8.70;73.80;7.80;95282.00;;;;5060452;28;20216;-63
2023/10/22 06:29:49;;;;;;;0.77;0.77;;;8.60;72.80;7.90;95293.00;;;;5061701;28;20192;-63
2023/10/22 06:32:16;;;;;;;0.80;0.80;;;8.70;72.90;7.90;95296.00;;;;5061376;28;20211;-63
2023/10/22 06:34:44;;;;;;;0.80;0.80;;;8.70;72.30;8.00;95290.00;;;;5041947;28;20651;-63
2023/10/22 06:37:12;;;;;;;0.97;0.97;;;8.70;72.70;8.00;95290.00;;;;5058834;28;20206;-63
2023/10/22 06:39:39;;;;;;;0.83;0.83;;;8.80;72.80;8.10;95296.00;;;;5058789;28;20263;-63
2023/10/22 06:42:06;;;;;;;1.00;1.00;;;8.80;73.00;8.10;95302.00;;;;5059101;28;20212;-63
2023/10/22 06:44:33;;;;;;;0.80;0.80;;;8.80;72.60;8.10;95310.00;;;;5058912;28;20215;-63
2023/10/22 06:47:01;;;;;;;0.70;0.70;;;8.90;72.70;8.10;95301.00;;;;5057544;28;20278;-64
2023/10/22 06:49:28;;;;;;;0.60;0.60;;;9.00;72.70;8.20;95305.00;;;;5058437;28;20224;-62
2023/10/22 06:51:56;;;;;;;1.37;1.27;;;9.00;72.50;8.30;95316.00;;;;5056866;28;20200;-63
2023/10/22 06:54:23;;;;;;;0.70;0.70;;;9.10;72.80;8.30;95307.00;;;;5057052;28;20192;-63
2023/10/22 06:56:50;;;;;;;0.77;0.77;;;9.10;72.40;8.30;95315.00;;;;5057990;28;20216;-63
2023/10/22 06:59:17;;;;;;;1.00;1.00;;;9.10;71.70;8.40;95311.00;;;;5057399;28;20239;-64
2023/10/22 07:01:45;;;;;;;0.50;0.50;;;9.20;72.30;8.60;95313.00;;;;5057601;28;20303;-63
2023/10/22 07:04:12;;;;;;;0.60;0.60;;;9.30;72.40;8.60;95317.00;;;;5055886;28;20200;-63
2023/10/22 07:06:40;;;;;;;3.63;1.37;;;9.30;72.10;8.70;95317.00;;;;5058225;28;20198;-63
2023/10/22 07:09:09;;;;;;;0.70;0.70;;;9.40;71.60;9.00;95321.00;;;;5059106;28;20652;-64
2023/10/22 07:11:37;;;;;;;0.87;0.87;;;9.60;71.40;9.00;95317.00;;;;5059292;28;20552;-63
2023/10/22 07:14:04;;;;;;;1.60;1.50;;;9.70;70.80;9.10;95318.00;;;;5058459;28;20193;-63
2023/10/22 07:16:31;;;;;;;0.80;0.80;;;9.80;70.60;9.10;95310.00;;;;5058817;28;20601;-63
2023/10/22 07:18:58;;;;;;;0.63;0.63;;;9.80;70.90;9.30;95315.00;;;;5058416;28;20219;-63
2023/10/22 07:21:25;;;;;;;0.73;0.73;;;9.90;71.00;9.40;95325.00;;;;5056919;28;20215;-63
2023/10/22 07:23:52;;;;;;;0.90;0.90;;;10.00;68.60;9.30;95326.00;;;;5058670;28;20219;-63
2023/10/22 07:26:22;;;;;;;0.60;0.60;;;10.00;69.40;9.40;95328.00;;;;5057785;28;20188;-63
2023/10/22 07:28:49;;;;;;;0.93;0.93;;;10.00;70.30;9.70;95326.00;;;;5058462;28;20673;-63
2023/10/22 07:31:17;;;;;;;0.73;0.73;;;10.30;70.10;9.70;95319.00;;;;5058136;28;20212;-63
2023/10/22 07:33:44;;;;;;;0.60;0.60;;;10.30;68.30;9.80;95332.00;;;;5058575;28;20188;-63
2023/10/22 07:36:11;;;;;;;0.60;0.60;;;10.40;69.00;10.00;95337.00;;;;5040550;28;20298;-63
2023/10/22 07:38:40;;;;;;;1.10;1.00;;;10.50;67.00;10.00;95334.00;;;;5058710;28;20210;-63
2023/10/22 07:41:13;;;;;;;1.50;1.13;;;10.60;66.40;10.10;95335.00;;;;5058554;28;20192;-63
2023/10/22 07:43:42;;;;;;;0.60;0.60;;;10.70;66.50;10.10;95336.00;;;;5056015;28;20176;-63
2023/10/22 07:46:10;;;;;;;0.60;0.60;;;10.70;67.20;10.40;95350.00;;;;5056057;28;20188;-63
2023/10/22 07:48:38;;;;;;;0.60;0.60;;;10.90;65.00;10.20;95346.00;;;;5057013;28;20202;-63
2023/10/22 07:51:12;;;;;;;0.50;0.50;;;10.90;65.60;10.30;95351.00;;;;5057817;28;20561;-63
2023/10/22 07:53:40;;;;;;;0.70;0.70;;;11.00;64.60;10.40;95324.00;;;;5058794;28;20195;-63
2023/10/22 07:56:08;;;;;;;0.60;0.60;;;11.00;65.70;10.50;95349.00;;;;5057340;28;20192;-63
2023/10/22 07:58:37;;;;;;;12.70;1.30;;;11.10;65.40;10.80;95347.00;;;;5057059;28;20188;-63
2023/10/22 08:01:07;;;;;;;0.70;0.70;;;11.30;64.90;10.90;95346.00;;;;5056230;28;20188;-63
2023/10/22 08:03:35;;;;;;;0.73;0.73;;;11.50;64.70;11.00;95351.00;;;;5040699;28;20195;-62
2023/10/22 08:06:05;;;;;;;0.60;0.60;;;11.50;64.00;10.90;95357.00;;;;5057919;28;20227;-62
2023/10/22 08:08:32;;;;;;;0.60;0.60;;;11.50;63.70;11.00;95357.00;;;;5060366;28;20188;-62
2023/10/22 08:11:00;;;;;;;0.57;0.57;;;11.60;61.60;11.10;95360.00;;;;5062674;28;20639;-62
2023/10/22 08:13:28;;;;;;;0.80;0.80;;;11.70;61.40;11.10;95355.00;;;;5043935;28;20193;-62
2023/10/22 08:15:56;;;;;;;0.70;0.70;;;11.70;62.00;11.30;95357.00;;;;5062656;28;20188;-62
2023/10/22 08:18:25;;;;;;;0.60;0.60;;;;;11.20;95366.00;;;;5062323;28;20188;-63
2023/10/22 08:20:52;;;;;;;0.90;0.90;;;;;11.40;95367.00;;;;5062411;28;20717;-62
2023/10/22 08:23:19;;;;;;;0.60;0.60;;;;;11.50;95359.00;;;;5044140;28;20200;-63
2023/10/22 08:25:57;;;;;;;0.60;0.60;;;;;11.50;95370.00;;;;5043489;28;20207;-62
2023/10/22 08:28:24;;;;;;;0.60;0.60;;;;;11.40;95380.00;;;;5043844;28;20639;-62
2023/10/22 08:30:52;;;;;;;1.03;1.03;;;;;11.60;95378.00;;;;5061586;28;20279;-62
2023/10/22 08:33:20;;;;;;;0.60;0.60;;;;;11.80;95377.00;;;;5044375;28;20207;-62
2023/10/22 08:35:48;;;;;;;0.70;0.70;;;;;11.70;95384.00;;;;5043299;28;20235;-62
2023/10/22 08:38:16;;;;;;;1.17;1.17;;;;;11.60;95392.00;;;;5062640;28;20204;-62
2023/10/22 08:40:44;;;;;;;0.60;0.60;;;;;11.80;95401.00;;;;5043932;28;20216;-62
2023/10/22 08:43:17;;;;;;;0.60;0.60;;;;;11.80;95403.00;;;;5062055;28;20212;-63
2023/10/22 08:45:46;;;;;;;0.60;0.60;;;;;11.90;95404.00;;;;5061847;28;20184;-62
2023/10/22 08:48:16;;;;;;;0.60;0.60;;;;;11.80;95414.00;;;;5043788;28;20410;-62
2023/10/22 08:50:44;;;;;;;0.80;0.80;;;;;11.80;95404.00;;;;5061848;28;20251;-62
2023/10/22 08:53:15;;;;;;;0.53;0.53;;;;;12.00;95401.00;;;;5061391;28;20208;-62
2023/10/22 08:55:45;;;;;;;0.90;0.90;;;;;12.20;95405.00;;;;5061495;28;20189;-63
2023/10/22 08:58:15;;;;;;;0.97;0.97;;;;;12.40;95404.00;;;;5043724;28;20200;-63
2023/10/22 09:00:45;;;;;;;1.27;0.80;;;;;12.20;95413.00;;;;5061970;28;20227;-63
2023/10/22 09:03:14;;;;;;;1.20;1.10;;;;;12.40;95410.00;;;;5062441;28;20216;-62
2023/10/22 09:05:41;;;;;;;3.10;0.90;;;;;12.40;95401.00;;;;5061367;28;20196;-62
2023/10/22 09:08:09;;;;;;;1.03;1.00;;;;;12.60;95415.00;;;;5062199;28;20212;-62
2023/10/22 09:10:38;;;;;;;2.53;0.90;;;;;12.90;95410.00;;;;5061559;28;20576;-67
2023/10/22 09:13:13;;;;;;;0.83;0.83;;;;;12.80;95401.00;;;;5042616;28;20211;-62
2023/10/22 09:15:43;;;;;;;1.17;0.97;;;;;13.00;95403.00;;;;5061815;28;20207;-62
2023/10/22 09:18:10;;;;;;;0.60;0.60;;;;;13.00;95398.00;;;;5061024;28;20192;-62
2023/10/22 09:20:38;;;;;;;0.50;0.50;;;13.60;47.70;13.00;95405.00;;;;5060343;28;20710;-62
2023/10/22 09:23:18;;;;;;;0.50;0.50;;;13.50;48.40;13.20;95389.00;;;;5059913;28;20215;-62
2023/10/22 09:25:48;;;;;;;3.47;1.63;;;;;12.90;95408.00;;;;5060810;28;20180;-62
2023/10/22 09:28:21;;;;;;;0.80;0.80;;;;;13.00;95410.00;;;;5044027;28;20188;-63
2023/10/22 09:30:54;;;;;;;17.80;1.00;;;;;12.70;95404.00;;;;5060881;28;20177;-62
2023/10/22 09:33:32;;;;;;;3.37;1.33;;;;;12.90;95417.00;;;;5060728;28;20195;-62
2023/10/22 09:36:02;;;;;;;0.50;0.50;;;13.50;46.90;13.00;95410.00;;;;5043852;28;20192;-62
2023/10/22 09:38:44;;;;;;;0.67;0.67;;;;;13.10;95408.00;;;;5061135;28;20180;-62
2023/10/22 09:41:14;;;;;;;0.60;0.60;;;;;13.40;95407.00;;;;5060001;28;20293;-62
2023/10/22 09:43:41;;;;;;;0.50;0.50;;;;;13.10;95408.00;;;;5061570;28;20234;-62
2023/10/22 09:46:09;;;;;;;0.70;0.70;;;;;13.60;95419.00;;;;5042223;28;20204;-62
2023/10/22 09:48:37;;;;;;;1.13;1.03;;;14.00;44.50;13.60;95407.00;;;;5041889;28;20200;-62
2023/10/22 09:51:06;;;;;;;0.50;0.50;;;14.00;45.30;13.70;95411.00;;;;5060451;28;20196;-62
2023/10/22 09:53:40;;;;;;;0.50;0.50;;;14.20;44.90;13.80;95420.00;;;;5060023;28;20192;-62
2023/10/22 09:56:18;;;;;;;15.43;1.17;;;14.30;45.60;14.10;95414.00;;;;5059447;28;20173;-62
2023/10/22 09:58:48;;;;;;;1.43;1.20;;;;;13.90;95421.00;;;;5060238;28;20168;-62
2023/10/22 10:01:16;;;;;;;0.50;0.50;;;14.50;41.70;14.00;95426.00;;;;5059937;28;20329;-62
2023/10/22 10:03:44;;;;;;;0.90;0.90;;;;;14.30;95421.00;;;;5060166;28;20279;-62
2023/10/22 10:06:12;;;;;;;0.57;0.57;;;;;14.40;95420.00;;;;5042757;28;20192;-62
2023/10/22 10:08:40;;;;;;;0.60;0.60;;;;;14.80;95438.00;;;;5060937;28;20501;-62
2023/10/22 10:11:11;;;;;;;0.50;0.50;;;;;14.50;95441.00;;;;5059593;28;20184;-62
2023/10/22 10:13:41;;;;;;;0.60;0.60;;;;;14.30;95446.00;;;;5059326;28;20207;-62
2023/10/22 10:16:09;;;;;;;0.60;0.60;;;;;14.50;95459.00;;;;5058822;28;20185;-63
2023/10/22 10:19:06;;;;;;;2.57;0.90;;;;;13.90;95470.00;;;;5058999;28;20275;-62
2023/10/22 10:21:47;;;;;;;11.63;0.80;;;;;13.60;95461.00;;;;5041052;28;20248;-62
2023/10/22 10:24:19;;;;;;;1.20;1.13;;;;;13.90;95461.00;;;;5059021;28;20183;-62
2023/10/22 10:26:48;;;;;;;0.70;0.70;;;;;13.70;95474.00;;;;5059476;28;20245;-61
2023/10/22 10:29:18;;;;;;;0.80;0.77;;;;;13.40;95472.00;;;;5059200;28;20200;-62
2023/10/22 10:31:47;;;;;;;0.77;0.77;;;;;13.50;95466.00;;;;5040313;28;20227;-62
2023/10/22 10:34:34;;;;;;;0.70;0.70;;;;;13.30;95471.00;;;;5059448;28;20200;-62
2023/10/22 10:37:10;;;;;;;0.80;0.80;;;;;13.70;95464.00;;;;5059326;28;20206;-62
2023/10/22 10:39:40;;;;;;;0.63;0.63;;;;;14.30;95450.00;;;;5059814;28;20203;-62
2023/10/22 10:42:07;;;;;;;0.60;0.60;;;;;14.30;95460.00;;;;5040968;28;20228;-62
2023/10/22 10:45:05;;;;;;;0.80;0.80;;;;;14.50;95458.00;;;;5041601;28;20223;-62
2023/10/22 10:47:33;;;;;;;1.40;0.90;;;;;14.40;95460.00;;;;5058741;28;20183;-61
2023/10/22 10:50:06;;;;;;;0.70;0.70;;;;;14.60;95459.00;;;;5057282;28;20192;-61
2023/10/22 10:52:57;;;;;;;0.60;0.60;;;;;14.80;95437.00;;;;5057336;28;20211;-61
2023/10/22 10:55:36;;;;;;;1.43;1.33;;;;;14.50;95453.00;;;;5057030;28;20180;-62
2023/10/22 10:58:04;;;;;;;0.60;0.60;;;;;14.50;95451.00;;;;5055783;28;20646;-62
2023/10/22 11:00:33;;;;;;;1.07;1.00;;;;;14.50;95463.00;;;;5056280;28;20219;-62
2023/10/22 11:03:02;;;;;;;0.50;0.50;;;;;14.50;95432.00;;;;5037591;28;20679;-62
2023/10/22 11:05:31;;;;;;;3.80;1.37;;;;;15.00;95431.00;;;;5055847;28;20200;-62
2023/10/22 11:07:59;;;;;;;0.90;0.90;;;;;15.10;95433.00;;;;5038228;28;20572;-62
2023/10/22 11:10:29;;;;;;;0.60;0.60;;;;;15.20;95433.00;;;;5056946;28;20184;-62
2023/10/22 11:13:03;;;;;;;0.50;0.50;;;;;15.30;95428.00;;;;5039036;28;20219;-62
2023/10/22 11:15:37;;;;;;;2.10;0.70;;;;;15.80;95428.00;;;;5038599;28;20184;-62
2023/10/22 11:18:05;;;;;;;0.73;0.73;;;;;15.40;95434.00;;;;5039601;28;20199;-62
2023/10/22 11:20:33;;;;;;;0.90;0.90;;;;;15.70;95424.00;;;;5057102;28;20554;-62
2023/10/22 11:23:01;;;;;;;1.20;0.80;;;;;15.70;95433.00;;;;5057601;28;20680;-62
2023/10/22 11:25:29;;;;;;;2.03;1.93;;;;;15.30;95431.00;;;;5057757;28;20238;-62
2023/10/22 11:27:58;;;;;;;6.20;1.10;;;;;15.90;95445.00;;;;5057351;28;20199;-62
2023/10/22 11:30:37;;;;;;;0.53;0.53;;;;;16.20;95450.00;;;;5058178;28;20604;-63
2023/10/22 11:33:11;;;;;;;3.20;1.13;;;;;15.80;95442.00;;;;5057245;28;20228;-62
2023/10/22 11:35:38;;;;;;;0.60;0.60;;;;;15.50;95443.00;;;;5058126;28;20217;-62
2023/10/22 11:38:06;;;;;;;0.50;0.50;;;;;16.20;95454.00;;;;5058217;28;20586;-62
2023/10/22 11:40:36;;;;;;;0.90;0.90;;;;;15.90;95454.00;;;;5039732;28;20311;-62
2023/10/22 11:43:14;;;;;;;0.93;0.93;;;;;15.80;95448.00;;;;5057943;28;20220;-62
2023/10/22 11:45:52;;;;;;;0.53;0.53;;;;;16.90;95434.00;;;;5061763;28;20191;-62
2023/10/22 11:48:21;;;;;;;0.60;0.60;;;;;16.60;95454.00;;;;5061743;28;20211;-62
2023/10/22 11:50:50;;;;;;;0.50;0.50;;;;;16.70;95463.00;;;;5061452;28;20226;-63
2023/10/22 11:53:18;;;;;;;0.90;0.90;;;;;16.30;95450.00;;;;5061079;28;20195;-62
2023/10/22 11:55:46;;;;;;;0.50;0.50;;;;;16.90;95447.00;;;;5061891;28;20196;-63
2023/10/22 11:58:18;;;;;;;0.60;0.60;;;;;16.80;95452.00;;;;5043345;28;20234;-63
2023/10/22 12:00:46;;;;;;;1.13;1.00;;;;;17.10;95467.00;;;;5043476;28;20262;-62
2023/10/22 12:03:15;;;;;;;1.90;1.37;;;;;16.70;95432.00;;;;5043018;28;20258;-62
2023/10/22 12:05:43;;;;;;;0.73;0.73;;;;;17.80;95432.00;;;;5042888;28;20200;-62